sensor_id;sensor_type;location;lat;lon;timestamp;P1;durP1;ratioP1;P2;durP2;ratioP2
2175;SDS011;1094;49.902;10.876;2023-05-07T00:01:05;25.33;;;23.53;;
2175;SDS011;1094;49.902;10.876;2023-05-07T00:03:31;23.90;;;22.10;;
2175;SDS011;1094;49.902;10.876;2023-05-07T00:05:57;24.73;;;23.23;;
2175;SDS011;1094;49.902;10.876;2023-05-07T00:08:23;25.97;;;23.70;;
2175;SDS011;1094;49.902;10.876;2023-05-07T00:10:49;24.03;;;22.23;;
2175;SDS011;1094;49.902;10.876;2023-05-07T00:13:15;24.23;;;22.70;;
2175;SDS011;1094;49.902;10.876;2023-05-07T00:15:41;23.90;;;22.40;;
2175;SDS011;1094;49.902;10.876;2023-05-07T00:18:07;26.27;;;24.00;;
2175;SDS011;1094;49.902;10.876;2023-05-07T00:20:33;26.60;;;24.60;;
2175;SDS011;1094;49.902;10.876;2023-05-07T00:22:59;24.07;;;22.50;;
2175;SDS011;1094;49.902;10.876;2023-05-07T00:25:25;24.13;;;22.73;;
2175;SDS011;1094;49.902;10.876;2023-05-07T00:27:51;24.77;;;22.70;;
2175;SDS011;1094;49.902;10.876;2023-05-07T00:30:17;24.50;;;22.90;;
2175;SDS011;1094;49.902;10.876;2023-05-07T00:32:43;25.70;;;24.10;;
2175;SDS011;1094;49.902;10.876;2023-05-07T00:35:10;25.20;;;23.50;;
2175;SDS011;1094;49.902;10.876;2023-05-07T00:37:37;26.23;;;24.13;;
2175;SDS011;1094;49.902;10.876;2023-05-07T00:40:03;25.20;;;23.53;;
2175;SDS011;1094;49.902;10.876;2023-05-07T00:42:33;25.30;;;23.47;;
2175;SDS011;1094;49.902;10.876;2023-05-07T00:44:59;25.50;;;23.90;;
2175;SDS011;1094;49.902;10.876;2023-05-07T00:47:25;23.93;;;22.43;;
2175;SDS011;1094;49.902;10.876;2023-05-07T00:49:51;25.33;;;23.73;;
2175;SDS011;1094;49.902;10.876;2023-05-07T00:52:17;25.50;;;23.83;;
2175;SDS011;1094;49.902;10.876;2023-05-07T00:54:45;24.83;;;23.27;;
2175;SDS011;1094;49.902;10.876;2023-05-07T00:57:11;25.03;;;23.47;;
2175;SDS011;1094;49.902;10.876;2023-05-07T00:59:37;25.40;;;23.37;;
2175;SDS011;1094;49.902;10.876;2023-05-07T01:02:04;25.37;;;23.87;;
2175;SDS011;1094;49.902;10.876;2023-05-07T01:04:30;23.53;;;22.03;;
2175;SDS011;1094;49.902;10.876;2023-05-07T01:06:56;26.37;;;24.17;;
2175;SDS011;1094;49.902;10.876;2023-05-07T01:09:24;23.90;;;22.40;;
2175;SDS011;1094;49.902;10.876;2023-05-07T01:11:50;24.27;;;22.87;;
2175;SDS011;1094;49.902;10.876;2023-05-07T01:14:16;25.80;;;24.00;;
2175;SDS011;1094;49.902;10.876;2023-05-07T01:16:43;25.63;;;23.77;;
2175;SDS011;1094;49.902;10.876;2023-05-07T01:19:09;25.57;;;23.70;;
2175;SDS011;1094;49.902;10.876;2023-05-07T01:21:36;25.23;;;23.70;;
2175;SDS011;1094;49.902;10.876;2023-05-07T01:24:03;28.50;;;26.60;;
2175;SDS011;1094;49.902;10.876;2023-05-07T01:26:30;26.73;;;24.97;;
2175;SDS011;1094;49.902;10.876;2023-05-07T01:28:56;26.53;;;24.83;;
2175;SDS011;1094;49.902;10.876;2023-05-07T01:31:22;26.80;;;25.07;;
2175;SDS011;1094;49.902;10.876;2023-05-07T01:33:49;27.70;;;25.80;;
2175;SDS011;1094;49.902;10.876;2023-05-07T01:36:17;27.30;;;25.40;;
2175;SDS011;1094;49.902;10.876;2023-05-07T01:38:43;27.13;;;25.23;;
2175;SDS011;1094;49.902;10.876;2023-05-07T01:41:09;26.37;;;24.67;;
2175;SDS011;1094;49.902;10.876;2023-05-07T01:43:35;27.80;;;26.00;;
2175;SDS011;1094;49.902;10.876;2023-05-07T01:46:01;29.17;;;27.13;;
2175;SDS011;1094;49.902;10.876;2023-05-07T01:48:28;29.53;;;27.40;;
2175;SDS011;1094;49.902;10.876;2023-05-07T01:50:55;29.40;;;27.20;;
2175;SDS011;1094;49.902;10.876;2023-05-07T01:53:21;29.03;;;26.90;;
2175;SDS011;1094;49.902;10.876;2023-05-07T01:55:46;29.83;;;27.40;;
2175;SDS011;1094;49.902;10.876;2023-05-07T01:58:12;27.70;;;25.80;;
2175;SDS011;1094;49.902;10.876;2023-05-07T02:00:39;28.77;;;26.50;;
2175;SDS011;1094;49.902;10.876;2023-05-07T02:03:05;27.77;;;25.87;;
2175;SDS011;1094;49.902;10.876;2023-05-07T02:05:31;28.90;;;26.80;;
2175;SDS011;1094;49.902;10.876;2023-05-07T02:07:57;28.50;;;26.37;;
2175;SDS011;1094;49.902;10.876;2023-05-07T02:10:23;27.93;;;26.03;;
2175;SDS011;1094;49.902;10.876;2023-05-07T02:12:49;28.37;;;26.27;;
2175;SDS011;1094;49.902;10.876;2023-05-07T02:15:15;27.67;;;25.80;;
2175;SDS011;1094;49.902;10.876;2023-05-07T02:20:26;28.50;;;26.50;;
2175;SDS011;1094;49.902;10.876;2023-05-07T02:22:52;30.63;;;28.43;;
2175;SDS011;1094;49.902;10.876;2023-05-07T02:25:18;26.63;;;24.83;;
2175;SDS011;1094;49.902;10.876;2023-05-07T02:27:44;27.87;;;25.90;;
2175;SDS011;1094;49.902;10.876;2023-05-07T02:30:10;28.63;;;26.63;;
2175;SDS011;1094;49.902;10.876;2023-05-07T02:32:36;27.73;;;25.63;;
2175;SDS011;1094;49.902;10.876;2023-05-07T02:35:02;28.23;;;26.10;;
2175;SDS011;1094;49.902;10.876;2023-05-07T02:37:28;28.63;;;26.77;;
2175;SDS011;1094;49.902;10.876;2023-05-07T02:39:54;28.60;;;26.60;;
2175;SDS011;1094;49.902;10.876;2023-05-07T02:42:20;30.27;;;27.80;;
2175;SDS011;1094;49.902;10.876;2023-05-07T02:44:46;30.50;;;28.17;;
2175;SDS011;1094;49.902;10.876;2023-05-07T02:47:13;29.40;;;27.20;;
2175;SDS011;1094;49.902;10.876;2023-05-07T02:49:39;28.93;;;26.83;;
2175;SDS011;1094;49.902;10.876;2023-05-07T02:52:05;28.90;;;26.83;;
2175;SDS011;1094;49.902;10.876;2023-05-07T02:54:31;31.40;;;29.00;;
2175;SDS011;1094;49.902;10.876;2023-05-07T02:56:57;32.03;;;29.40;;
2175;SDS011;1094;49.902;10.876;2023-05-07T02:59:23;33.07;;;30.43;;
2175;SDS011;1094;49.902;10.876;2023-05-07T03:01:51;31.60;;;29.00;;
2175;SDS011;1094;49.902;10.876;2023-05-07T03:04:17;32.70;;;30.27;;
2175;SDS011;1094;49.902;10.876;2023-05-07T03:06:43;34.97;;;32.20;;
2175;SDS011;1094;49.902;10.876;2023-05-07T03:09:09;33.57;;;30.87;;
2175;SDS011;1094;49.902;10.876;2023-05-07T03:11:35;34.40;;;31.60;;
2175;SDS011;1094;49.902;10.876;2023-05-07T03:14:02;34.53;;;31.43;;
2175;SDS011;1094;49.902;10.876;2023-05-07T03:16:28;34.40;;;31.57;;
2175;SDS011;1094;49.902;10.876;2023-05-07T03:18:54;34.70;;;31.80;;
2175;SDS011;1094;49.902;10.876;2023-05-07T03:21:19;34.33;;;31.27;;
2175;SDS011;1094;49.902;10.876;2023-05-07T03:23:45;34.70;;;31.70;;
2175;SDS011;1094;49.902;10.876;2023-05-07T03:26:11;33.77;;;30.83;;
2175;SDS011;1094;49.902;10.876;2023-05-07T03:28:37;33.43;;;30.80;;
2175;SDS011;1094;49.902;10.876;2023-05-07T03:31:03;34.23;;;31.27;;
2175;SDS011;1094;49.902;10.876;2023-05-07T03:33:30;34.43;;;31.63;;
2175;SDS011;1094;49.902;10.876;2023-05-07T03:35:56;34.47;;;31.73;;
2175;SDS011;1094;49.902;10.876;2023-05-07T03:38:21;34.27;;;31.27;;
2175;SDS011;1094;49.902;10.876;2023-05-07T03:40:47;33.03;;;30.33;;
2175;SDS011;1094;49.902;10.876;2023-05-07T03:43:13;34.60;;;31.47;;
2175;SDS011;1094;49.902;10.876;2023-05-07T03:45:39;31.97;;;29.47;;
2175;SDS011;1094;49.902;10.876;2023-05-07T03:48:05;34.83;;;31.70;;
2175;SDS011;1094;49.902;10.876;2023-05-07T03:50:31;33.20;;;30.30;;
2175;SDS011;1094;49.902;10.876;2023-05-07T03:52:57;35.10;;;31.97;;
2175;SDS011;1094;49.902;10.876;2023-05-07T03:55:23;35.50;;;32.60;;
2175;SDS011;1094;49.902;10.876;2023-05-07T03:57:50;34.23;;;31.43;;
2175;SDS011;1094;49.902;10.876;2023-05-07T04:00:16;35.23;;;31.90;;
2175;SDS011;1094;49.902;10.876;2023-05-07T04:02:42;35.57;;;32.37;;
2175;SDS011;1094;49.902;10.876;2023-05-07T04:05:08;35.37;;;32.17;;
2175;SDS011;1094;49.902;10.876;2023-05-07T04:07:34;35.30;;;31.80;;
2175;SDS011;1094;49.902;10.876;2023-05-07T04:10:00;35.73;;;32.50;;
2175;SDS011;1094;49.902;10.876;2023-05-07T04:12:26;33.77;;;30.83;;
2175;SDS011;1094;49.902;10.876;2023-05-07T04:14:52;34.67;;;31.53;;
2175;SDS011;1094;49.902;10.876;2023-05-07T04:17:18;34.30;;;31.00;;
2175;SDS011;1094;49.902;10.876;2023-05-07T04:19:44;34.73;;;31.73;;
2175;SDS011;1094;49.902;10.876;2023-05-07T04:22:10;36.73;;;33.00;;
2175;SDS011;1094;49.902;10.876;2023-05-07T04:24:37;36.87;;;33.30;;
2175;SDS011;1094;49.902;10.876;2023-05-07T04:27:03;35.10;;;32.00;;
2175;SDS011;1094;49.902;10.876;2023-05-07T04:29:29;34.07;;;31.07;;
2175;SDS011;1094;49.902;10.876;2023-05-07T04:31:55;34.40;;;31.50;;
2175;SDS011;1094;49.902;10.876;2023-05-07T04:34:21;36.50;;;33.10;;
2175;SDS011;1094;49.902;10.876;2023-05-07T04:36:47;33.80;;;30.87;;
2175;SDS011;1094;49.902;10.876;2023-05-07T04:39:13;33.43;;;30.70;;
2175;SDS011;1094;49.902;10.876;2023-05-07T04:41:39;32.50;;;29.90;;
2175;SDS011;1094;49.902;10.876;2023-05-07T04:44:05;32.60;;;30.00;;
2175;SDS011;1094;49.902;10.876;2023-05-07T04:46:31;32.30;;;29.90;;
2175;SDS011;1094;49.902;10.876;2023-05-07T04:48:57;32.40;;;30.00;;
2175;SDS011;1094;49.902;10.876;2023-05-07T04:51:23;29.63;;;27.43;;
2175;SDS011;1094;49.902;10.876;2023-05-07T04:53:50;31.43;;;28.93;;
2175;SDS011;1094;49.902;10.876;2023-05-07T04:56:16;31.07;;;28.63;;
2175;SDS011;1094;49.902;10.876;2023-05-07T04:58:42;30.43;;;28.27;;
2175;SDS011;1094;49.902;10.876;2023-05-07T05:01:08;30.73;;;28.30;;
2175;SDS011;1094;49.902;10.876;2023-05-07T05:03:34;30.60;;;28.50;;
2175;SDS011;1094;49.902;10.876;2023-05-07T05:05:59;30.30;;;27.97;;
2175;SDS011;1094;49.902;10.876;2023-05-07T05:08:25;30.50;;;28.23;;
2175;SDS011;1094;49.902;10.876;2023-05-07T05:10:51;30.80;;;28.57;;
2175;SDS011;1094;49.902;10.876;2023-05-07T05:13:17;29.97;;;27.80;;
2175;SDS011;1094;49.902;10.876;2023-05-07T05:15:43;28.53;;;26.53;;
2175;SDS011;1094;49.902;10.876;2023-05-07T05:18:10;29.23;;;27.23;;
2175;SDS011;1094;49.902;10.876;2023-05-07T05:20:36;29.10;;;27.10;;
2175;SDS011;1094;49.902;10.876;2023-05-07T05:23:02;29.77;;;27.60;;
2175;SDS011;1094;49.902;10.876;2023-05-07T05:25:28;28.97;;;26.97;;
2175;SDS011;1094;49.902;10.876;2023-05-07T05:27:54;29.33;;;27.23;;
2175;SDS011;1094;49.902;10.876;2023-05-07T05:30:20;29.17;;;26.97;;
2175;SDS011;1094;49.902;10.876;2023-05-07T05:32:46;29.87;;;27.77;;
2175;SDS011;1094;49.902;10.876;2023-05-07T05:35:12;29.10;;;27.00;;
2175;SDS011;1094;49.902;10.876;2023-05-07T05:37:38;28.90;;;26.80;;
2175;SDS011;1094;49.902;10.876;2023-05-07T05:40:04;29.63;;;27.53;;
2175;SDS011;1094;49.902;10.876;2023-05-07T05:42:30;28.10;;;26.07;;
2175;SDS011;1094;49.902;10.876;2023-05-07T05:44:56;29.20;;;26.83;;
2175;SDS011;1094;49.902;10.876;2023-05-07T05:47:22;28.50;;;26.50;;
2175;SDS011;1094;49.902;10.876;2023-05-07T05:49:48;28.53;;;26.47;;
2175;SDS011;1094;49.902;10.876;2023-05-07T05:52:14;28.20;;;26.30;;
2175;SDS011;1094;49.902;10.876;2023-05-07T05:54:41;27.23;;;25.43;;
2175;SDS011;1094;49.902;10.876;2023-05-07T05:57:07;26.60;;;24.73;;
2175;SDS011;1094;49.902;10.876;2023-05-07T05:59:33;25.80;;;24.00;;
2175;SDS011;1094;49.902;10.876;2023-05-07T06:01:59;25.23;;;23.50;;
2175;SDS011;1094;49.902;10.876;2023-05-07T06:04:25;24.80;;;23.20;;
2175;SDS011;1094;49.902;10.876;2023-05-07T06:06:51;25.40;;;23.73;;
2175;SDS011;1094;49.902;10.876;2023-05-07T06:09:17;24.90;;;23.27;;
2175;SDS011;1094;49.902;10.876;2023-05-07T06:11:43;23.53;;;22.13;;
2175;SDS011;1094;49.902;10.876;2023-05-07T06:14:09;23.40;;;21.97;;
2175;SDS011;1094;49.902;10.876;2023-05-07T06:16:35;23.97;;;22.50;;
2175;SDS011;1094;49.902;10.876;2023-05-07T06:19:02;22.77;;;21.47;;
2175;SDS011;1094;49.902;10.876;2023-05-07T06:21:28;22.90;;;21.60;;
2175;SDS011;1094;49.902;10.876;2023-05-07T06:23:55;24.93;;;23.23;;
2175;SDS011;1094;49.902;10.876;2023-05-07T06:26:21;25.17;;;23.53;;
2175;SDS011;1094;49.902;10.876;2023-05-07T06:28:47;25.00;;;23.50;;
2175;SDS011;1094;49.902;10.876;2023-05-07T06:31:14;25.53;;;23.90;;
2175;SDS011;1094;49.902;10.876;2023-05-07T06:33:40;24.83;;;23.03;;
2175;SDS011;1094;49.902;10.876;2023-05-07T06:36:06;25.43;;;23.40;;
2175;SDS011;1094;49.902;10.876;2023-05-07T06:38:32;24.40;;;22.97;;
2175;SDS011;1094;49.902;10.876;2023-05-07T06:40:58;24.53;;;23.03;;
2175;SDS011;1094;49.902;10.876;2023-05-07T06:43:24;25.83;;;23.93;;
2175;SDS011;1094;49.902;10.876;2023-05-07T06:45:50;24.40;;;23.00;;
2175;SDS011;1094;49.902;10.876;2023-05-07T06:48:16;24.93;;;23.30;;
2175;SDS011;1094;49.902;10.876;2023-05-07T06:50:42;24.43;;;22.63;;
2175;SDS011;1094;49.902;10.876;2023-05-07T06:53:08;25.87;;;24.10;;
2175;SDS011;1094;49.902;10.876;2023-05-07T06:55:34;24.13;;;22.53;;
2175;SDS011;1094;49.902;10.876;2023-05-07T06:58:00;24.63;;;23.13;;
2175;SDS011;1094;49.902;10.876;2023-05-07T07:00:26;24.40;;;22.90;;
2175;SDS011;1094;49.902;10.876;2023-05-07T07:02:53;24.23;;;22.73;;
2175;SDS011;1094;49.902;10.876;2023-05-07T07:05:19;26.73;;;24.90;;
2175;SDS011;1094;49.902;10.876;2023-05-07T07:07:45;25.87;;;24.17;;
2175;SDS011;1094;49.902;10.876;2023-05-07T07:10:17;26.57;;;24.63;;
2175;SDS011;1094;49.902;10.876;2023-05-07T07:12:43;26.63;;;24.70;;
2175;SDS011;1094;49.902;10.876;2023-05-07T07:15:09;26.50;;;24.77;;
2175;SDS011;1094;49.902;10.876;2023-05-07T07:17:35;25.23;;;23.63;;
2175;SDS011;1094;49.902;10.876;2023-05-07T07:20:02;23.80;;;22.20;;
2175;SDS011;1094;49.902;10.876;2023-05-07T07:22:28;23.90;;;22.40;;
2175;SDS011;1094;49.902;10.876;2023-05-07T07:24:54;22.97;;;21.40;;
2175;SDS011;1094;49.902;10.876;2023-05-07T07:27:20;23.80;;;22.30;;
2175;SDS011;1094;49.902;10.876;2023-05-07T07:29:46;22.53;;;21.23;;
2175;SDS011;1094;49.902;10.876;2023-05-07T07:32:12;23.80;;;22.10;;
2175;SDS011;1094;49.902;10.876;2023-05-07T07:34:38;23.07;;;21.77;;
2175;SDS011;1094;49.902;10.876;2023-05-07T07:37:04;23.70;;;22.20;;
2175;SDS011;1094;49.902;10.876;2023-05-07T07:39:34;23.90;;;22.23;;
2175;SDS011;1094;49.902;10.876;2023-05-07T07:42:02;23.70;;;22.20;;
2175;SDS011;1094;49.902;10.876;2023-05-07T07:44:28;23.77;;;21.97;;
2175;SDS011;1094;49.902;10.876;2023-05-07T07:46:54;22.20;;;20.90;;
2175;SDS011;1094;49.902;10.876;2023-05-07T07:49:20;22.50;;;21.03;;
2175;SDS011;1094;49.902;10.876;2023-05-07T07:51:46;23.10;;;21.50;;
2175;SDS011;1094;49.902;10.876;2023-05-07T07:54:12;22.87;;;21.37;;
2175;SDS011;1094;49.902;10.876;2023-05-07T07:56:38;22.80;;;21.43;;
2175;SDS011;1094;49.902;10.876;2023-05-07T07:59:04;23.27;;;21.80;;
2175;SDS011;1094;49.902;10.876;2023-05-07T08:01:30;22.53;;;21.07;;
2175;SDS011;1094;49.902;10.876;2023-05-07T08:03:56;22.80;;;21.50;;
2175;SDS011;1094;49.902;10.876;2023-05-07T08:06:27;23.93;;;22.43;;
2175;SDS011;1094;49.902;10.876;2023-05-07T08:08:53;23.67;;;22.20;;
2175;SDS011;1094;49.902;10.876;2023-05-07T08:11:20;24.50;;;22.93;;
2175;SDS011;1094;49.902;10.876;2023-05-07T08:13:46;24.47;;;22.77;;
2175;SDS011;1094;49.902;10.876;2023-05-07T08:16:12;22.90;;;21.60;;
2175;SDS011;1094;49.902;10.876;2023-05-07T08:18:38;22.73;;;21.37;;
2175;SDS011;1094;49.902;10.876;2023-05-07T08:21:04;22.90;;;21.50;;
2175;SDS011;1094;49.902;10.876;2023-05-07T08:23:30;21.70;;;20.50;;
2175;SDS011;1094;49.902;10.876;2023-05-07T08:25:56;21.93;;;20.43;;
2175;SDS011;1094;49.902;10.876;2023-05-07T08:28:22;21.37;;;20.00;;
2175;SDS011;1094;49.902;10.876;2023-05-07T08:30:49;20.87;;;19.37;;
2175;SDS011;1094;49.902;10.876;2023-05-07T08:33:15;19.77;;;18.77;;
2175;SDS011;1094;49.902;10.876;2023-05-07T08:35:41;20.10;;;18.93;;
2175;SDS011;1094;49.902;10.876;2023-05-07T08:38:07;20.07;;;18.97;;
2175;SDS011;1094;49.902;10.876;2023-05-07T08:40:37;20.47;;;19.27;;
2175;SDS011;1094;49.902;10.876;2023-05-07T08:43:05;20.43;;;19.33;;
2175;SDS011;1094;49.902;10.876;2023-05-07T08:45:31;21.70;;;20.13;;
2175;SDS011;1094;49.902;10.876;2023-05-07T08:47:58;21.40;;;20.20;;
2175;SDS011;1094;49.902;10.876;2023-05-07T08:50:25;21.40;;;20.20;;
2175;SDS011;1094;49.902;10.876;2023-05-07T08:52:51;20.90;;;19.70;;
2175;SDS011;1094;49.902;10.876;2023-05-07T08:55:17;21.47;;;20.17;;
2175;SDS011;1094;49.902;10.876;2023-05-07T08:57:44;20.60;;;19.50;;
2175;SDS011;1094;49.902;10.876;2023-05-07T09:00:10;22.20;;;20.90;;
2175;SDS011;1094;49.902;10.876;2023-05-07T09:02:36;22.03;;;20.73;;
2175;SDS011;1094;49.902;10.876;2023-05-07T09:05:02;21.17;;;19.83;;
2175;SDS011;1094;49.902;10.876;2023-05-07T09:07:29;20.83;;;19.73;;
2175;SDS011;1094;49.902;10.876;2023-05-07T09:09:55;19.77;;;18.47;;
2175;SDS011;1094;49.902;10.876;2023-05-07T09:12:22;20.80;;;19.60;;
2175;SDS011;1094;49.902;10.876;2023-05-07T09:14:49;19.53;;;18.53;;
2175;SDS011;1094;49.902;10.876;2023-05-07T09:17:15;20.10;;;19.10;;
2175;SDS011;1094;49.902;10.876;2023-05-07T09:19:43;20.00;;;18.60;;
2175;SDS011;1094;49.902;10.876;2023-05-07T09:22:09;19.43;;;18.23;;
2175;SDS011;1094;49.902;10.876;2023-05-07T09:24:35;19.30;;;18.20;;
2175;SDS011;1094;49.902;10.876;2023-05-07T09:27:03;19.60;;;18.30;;
2175;SDS011;1094;49.902;10.876;2023-05-07T09:29:30;19.40;;;18.13;;
2175;SDS011;1094;49.902;10.876;2023-05-07T09:32:00;20.23;;;19.10;;
2175;SDS011;1094;49.902;10.876;2023-05-07T09:34:28;19.97;;;18.77;;
2175;SDS011;1094;49.902;10.876;2023-05-07T09:36:54;20.20;;;19.10;;
2175;SDS011;1094;49.902;10.876;2023-05-07T09:39:21;18.57;;;17.57;;
2175;SDS011;1094;49.902;10.876;2023-05-07T09:41:47;19.37;;;18.27;;
2175;SDS011;1094;49.902;10.876;2023-05-07T09:44:19;19.47;;;18.37;;
2175;SDS011;1094;49.902;10.876;2023-05-07T09:46:45;18.77;;;17.87;;
2175;SDS011;1094;49.902;10.876;2023-05-07T09:49:20;19.50;;;18.30;;
2175;SDS011;1094;49.902;10.876;2023-05-07T09:51:50;20.13;;;18.70;;
2175;SDS011;1094;49.902;10.876;2023-05-07T09:54:16;19.50;;;18.40;;
2175;SDS011;1094;49.902;10.876;2023-05-07T09:56:45;19.87;;;18.77;;
2175;SDS011;1094;49.902;10.876;2023-05-07T09:59:15;19.67;;;18.47;;
2175;SDS011;1094;49.902;10.876;2023-05-07T10:01:41;19.17;;;18.17;;
2175;SDS011;1094;49.902;10.876;2023-05-07T10:04:08;19.37;;;18.47;;
2175;SDS011;1094;49.902;10.876;2023-05-07T10:06:34;19.30;;;18.30;;
2175;SDS011;1094;49.902;10.876;2023-05-07T10:09:01;19.70;;;18.57;;
2175;SDS011;1094;49.902;10.876;2023-05-07T10:11:29;20.40;;;19.30;;
2175;SDS011;1094;49.902;10.876;2023-05-07T10:13:55;20.10;;;19.03;;
2175;SDS011;1094;49.902;10.876;2023-05-07T10:16:21;20.27;;;18.77;;
2175;SDS011;1094;49.902;10.876;2023-05-07T10:18:48;19.53;;;18.53;;
2175;SDS011;1094;49.902;10.876;2023-05-07T10:21:19;20.03;;;18.93;;
2175;SDS011;1094;49.902;10.876;2023-05-07T10:23:46;19.67;;;18.40;;
2175;SDS011;1094;49.902;10.876;2023-05-07T10:26:13;20.23;;;19.13;;
2175;SDS011;1094;49.902;10.876;2023-05-07T10:28:42;31.17;;;28.97;;
2175;SDS011;1094;49.902;10.876;2023-05-07T10:31:13;19.70;;;18.60;;
2175;SDS011;1094;49.902;10.876;2023-05-07T10:33:41;19.73;;;18.63;;
2175;SDS011;1094;49.902;10.876;2023-05-07T10:36:07;19.40;;;18.40;;
2175;SDS011;1094;49.902;10.876;2023-05-07T10:38:33;18.83;;;17.83;;
2175;SDS011;1094;49.902;10.876;2023-05-07T10:40:59;18.53;;;17.57;;
2175;SDS011;1094;49.902;10.876;2023-05-07T10:43:25;19.30;;;18.30;;
2175;SDS011;1094;49.902;10.876;2023-05-07T10:46:24;19.60;;;18.20;;
2175;SDS011;1094;49.902;10.876;2023-05-07T10:51:29;18.23;;;17.33;;
2175;SDS011;1094;49.902;10.876;2023-05-07T10:56:39;20.33;;;19.03;;
2175;SDS011;1094;49.902;10.876;2023-05-07T11:01:49;20.00;;;19.00;;
2175;SDS011;1094;49.902;10.876;2023-05-07T11:04:15;19.90;;;18.70;;
2175;SDS011;1094;49.902;10.876;2023-05-07T11:07:00;19.40;;;18.40;;
2175;SDS011;1094;49.902;10.876;2023-05-07T11:12:13;20.50;;;19.20;;
2175;SDS011;1094;49.902;10.876;2023-05-07T11:14:43;20.40;;;19.10;;
2175;SDS011;1094;49.902;10.876;2023-05-07T11:17:09;22.47;;;21.13;;
2175;SDS011;1094;49.902;10.876;2023-05-07T11:19:50;21.03;;;19.70;;
2175;SDS011;1094;49.902;10.876;2023-05-07T11:25:01;20.00;;;18.77;;
2175;SDS011;1094;49.902;10.876;2023-05-07T11:27:27;22.20;;;20.90;;
2175;SDS011;1094;49.902;10.876;2023-05-07T11:29:54;19.40;;;18.40;;
2175;SDS011;1094;49.902;10.876;2023-05-07T11:32:30;19.33;;;18.27;;
2175;SDS011;1094;49.902;10.876;2023-05-07T11:34:58;19.17;;;18.00;;
2175;SDS011;1094;49.902;10.876;2023-05-07T11:37:25;18.73;;;17.83;;
2175;SDS011;1094;49.902;10.876;2023-05-07T11:39:52;18.47;;;17.47;;
2175;SDS011;1094;49.902;10.876;2023-05-07T11:42:27;18.60;;;17.70;;
2175;SDS011;1094;49.902;10.876;2023-05-07T11:44:54;19.17;;;17.90;;
2175;SDS011;1094;49.902;10.876;2023-05-07T11:47:20;19.40;;;18.40;;
2175;SDS011;1094;49.902;10.876;2023-05-07T11:49:50;19.77;;;18.67;;
2175;SDS011;1094;49.902;10.876;2023-05-07T11:52:16;18.83;;;17.83;;
2175;SDS011;1094;49.902;10.876;2023-05-07T11:54:49;18.50;;;17.60;;
2175;SDS011;1094;49.902;10.876;2023-05-07T11:57:15;18.37;;;17.47;;
2175;SDS011;1094;49.902;10.876;2023-05-07T11:59:41;18.63;;;17.70;;
2175;SDS011;1094;49.902;10.876;2023-05-07T12:02:13;18.87;;;17.77;;
2175;SDS011;1094;49.902;10.876;2023-05-07T12:04:39;19.20;;;18.10;;
2175;SDS011;1094;49.902;10.876;2023-05-07T12:07:05;19.40;;;18.40;;
2175;SDS011;1094;49.902;10.876;2023-05-07T12:09:32;19.17;;;18.13;;
2175;SDS011;1094;49.902;10.876;2023-05-07T12:12:03;19.43;;;18.33;;
2175;SDS011;1094;49.902;10.876;2023-05-07T12:14:29;18.93;;;17.93;;
2175;SDS011;1094;49.902;10.876;2023-05-07T12:16:55;19.80;;;18.80;;
2175;SDS011;1094;49.902;10.876;2023-05-07T12:19:22;19.83;;;18.73;;
2175;SDS011;1094;49.902;10.876;2023-05-07T12:21:48;20.57;;;19.17;;
2175;SDS011;1094;49.902;10.876;2023-05-07T12:24:14;20.13;;;18.93;;
2175;SDS011;1094;49.902;10.876;2023-05-07T12:26:40;22.47;;;21.07;;
2175;SDS011;1094;49.902;10.876;2023-05-07T12:29:06;20.80;;;19.80;;
2175;SDS011;1094;49.902;10.876;2023-05-07T12:31:32;20.73;;;19.63;;
2175;SDS011;1094;49.902;10.876;2023-05-07T12:33:58;20.57;;;19.47;;
2175;SDS011;1094;49.902;10.876;2023-05-07T12:36:24;20.87;;;19.57;;
2175;SDS011;1094;49.902;10.876;2023-05-07T12:38:50;20.20;;;19.00;;
2175;SDS011;1094;49.902;10.876;2023-05-07T12:41:16;20.13;;;19.03;;
2175;SDS011;1094;49.902;10.876;2023-05-07T12:43:46;21.50;;;20.40;;
2175;SDS011;1094;49.902;10.876;2023-05-07T12:46:12;20.83;;;19.73;;
2175;SDS011;1094;49.902;10.876;2023-05-07T12:48:43;21.07;;;19.93;;
2175;SDS011;1094;49.902;10.876;2023-05-07T12:51:12;20.13;;;19.03;;
2175;SDS011;1094;49.902;10.876;2023-05-07T12:53:40;20.53;;;19.53;;
2175;SDS011;1094;49.902;10.876;2023-05-07T12:56:09;20.70;;;19.60;;
2175;SDS011;1094;49.902;10.876;2023-05-07T12:58:35;20.37;;;19.10;;
2175;SDS011;1094;49.902;10.876;2023-05-07T13:01:04;20.80;;;19.70;;
2175;SDS011;1094;49.902;10.876;2023-05-07T13:03:31;20.00;;;18.93;;
2175;SDS011;1094;49.902;10.876;2023-05-07T13:05:58;20.37;;;19.20;;
2175;SDS011;1094;49.902;10.876;2023-05-07T13:08:25;20.60;;;19.40;;
2175;SDS011;1094;49.902;10.876;2023-05-07T13:10:51;21.00;;;19.60;;
2175;SDS011;1094;49.902;10.876;2023-05-07T13:13:18;20.97;;;19.67;;
2175;SDS011;1094;49.902;10.876;2023-05-07T13:15:45;21.00;;;19.80;;
2175;SDS011;1094;49.902;10.876;2023-05-07T13:18:10;21.00;;;19.80;;
2175;SDS011;1094;49.902;10.876;2023-05-07T13:20:36;20.70;;;19.60;;
2175;SDS011;1094;49.902;10.876;2023-05-07T13:23:03;20.43;;;19.33;;
2175;SDS011;1094;49.902;10.876;2023-05-07T13:25:29;20.63;;;19.50;;
2175;SDS011;1094;49.902;10.876;2023-05-07T13:27:58;20.93;;;19.83;;
2175;SDS011;1094;49.902;10.876;2023-05-07T13:30:24;21.77;;;20.47;;
2175;SDS011;1094;49.902;10.876;2023-05-07T13:32:50;20.90;;;19.80;;
2175;SDS011;1094;49.902;10.876;2023-05-07T13:35:17;20.87;;;19.77;;
2175;SDS011;1094;49.902;10.876;2023-05-07T13:37:43;21.20;;;19.90;;
2175;SDS011;1094;49.902;10.876;2023-05-07T13:40:09;20.90;;;19.70;;
2175;SDS011;1094;49.902;10.876;2023-05-07T13:42:35;20.70;;;19.60;;
2175;SDS011;1094;49.902;10.876;2023-05-07T13:45:01;20.60;;;19.50;;
2175;SDS011;1094;49.902;10.876;2023-05-07T13:47:30;21.00;;;19.70;;
2175;SDS011;1094;49.902;10.876;2023-05-07T13:49:56;21.10;;;19.90;;
2175;SDS011;1094;49.902;10.876;2023-05-07T13:52:21;21.30;;;20.10;;
2175;SDS011;1094;49.902;10.876;2023-05-07T13:54:47;21.13;;;19.93;;
2175;SDS011;1094;49.902;10.876;2023-05-07T13:57:13;21.30;;;20.10;;
2175;SDS011;1094;49.902;10.876;2023-05-07T13:59:40;20.70;;;19.50;;
2175;SDS011;1094;49.902;10.876;2023-05-07T14:02:06;20.37;;;19.27;;
2175;SDS011;1094;49.902;10.876;2023-05-07T14:04:32;20.17;;;19.17;;
2175;SDS011;1094;49.902;10.876;2023-05-07T14:06:58;20.47;;;19.17;;
2175;SDS011;1094;49.902;10.876;2023-05-07T14:09:24;20.90;;;19.70;;
2175;SDS011;1094;49.902;10.876;2023-05-07T14:11:52;20.90;;;19.40;;
2175;SDS011;1094;49.902;10.876;2023-05-07T14:14:18;21.27;;;20.00;;
2175;SDS011;1094;49.902;10.876;2023-05-07T14:16:44;20.20;;;19.10;;
2175;SDS011;1094;49.902;10.876;2023-05-07T14:19:11;20.03;;;18.93;;
2175;SDS011;1094;49.902;10.876;2023-05-07T14:21:37;20.50;;;19.40;;
2175;SDS011;1094;49.902;10.876;2023-05-07T14:24:03;20.10;;;19.10;;
2175;SDS011;1094;49.902;10.876;2023-05-07T14:26:29;20.37;;;19.27;;
2175;SDS011;1094;49.902;10.876;2023-05-07T14:28:55;20.93;;;19.50;;
2175;SDS011;1094;49.902;10.876;2023-05-07T14:31:23;20.13;;;19.03;;
2175;SDS011;1094;49.902;10.876;2023-05-07T14:33:49;20.20;;;19.10;;
2175;SDS011;1094;49.902;10.876;2023-05-07T14:36:15;20.60;;;19.40;;
2175;SDS011;1094;49.902;10.876;2023-05-07T14:38:42;21.43;;;20.13;;
2175;SDS011;1094;49.902;10.876;2023-05-07T14:41:07;20.40;;;19.20;;
2175;SDS011;1094;49.902;10.876;2023-05-07T14:43:33;21.10;;;20.00;;
2175;SDS011;1094;49.902;10.876;2023-05-07T14:45:59;20.60;;;19.50;;